sensor_id;sensor_type;location;lat;lon;timestamp;P1;durP1;ratioP1;P2;durP2;ratioP2
59008;SDS011;44794;42.652;23.318;2023-08-08T00:02:14;3.25;;;1.63;;
59008;SDS011;44794;42.652;23.318;2023-08-08T00:04:40;1.50;;;1.40;;
59008;SDS011;44794;42.652;23.318;2023-08-08T00:07:05;2.75;;;1.52;;
59008;SDS011;44794;42.652;23.318;2023-08-08T00:09:31;1.52;;;1.42;;
59008;SDS011;44794;42.652;23.318;2023-08-08T00:11:57;1.50;;;1.38;;
59008;SDS011;44794;42.652;23.318;2023-08-08T00:14:23;2.13;;;1.67;;
59008;SDS011;44794;42.652;23.318;2023-08-08T00:16:48;2.35;;;1.58;;
59008;SDS011;44794;42.652;23.318;2023-08-08T00:19:14;2.63;;;1.63;;
59008;SDS011;44794;42.652;23.318;2023-08-08T00:21:40;2.10;;;1.90;;
59008;SDS011;44794;42.652;23.318;2023-08-08T00:24:05;2.00;;;1.70;;
59008;SDS011;44794;42.652;23.318;2023-08-08T00:26:31;2.40;;;1.90;;
59008;SDS011;44794;42.652;23.318;2023-08-08T00:28:56;2.35;;;1.90;;
59008;SDS011;44794;42.652;23.318;2023-08-08T00:31:22;2.20;;;2.00;;
59008;SDS011;44794;42.652;23.318;2023-08-08T00:33:47;2.33;;;2.00;;
59008;SDS011;44794;42.652;23.318;2023-08-08T00:36:12;2.30;;;2.00;;
59008;SDS011;44794;42.652;23.318;2023-08-08T00:38:38;2.08;;;1.88;;
59008;SDS011;44794;42.652;23.318;2023-08-08T00:41:03;2.58;;;2.20;;
59008;SDS011;44794;42.652;23.318;2023-08-08T00:43:29;2.80;;;1.95;;
59008;SDS011;44794;42.652;23.318;2023-08-08T00:45:55;2.30;;;2.10;;
59008;SDS011;44794;42.652;23.318;2023-08-08T00:48:22;2.63;;;2.00;;
59008;SDS011;44794;42.652;23.318;2023-08-08T00:50:48;2.70;;;2.33;;
59008;SDS011;44794;42.652;23.318;2023-08-08T00:53:15;2.33;;;2.13;;
59008;SDS011;44794;42.652;23.318;2023-08-08T00:55:41;3.05;;;2.30;;
59008;SDS011;44794;42.652;23.318;2023-08-08T00:58:07;3.47;;;2.40;;
59008;SDS011;44794;42.652;23.318;2023-08-08T01:00:32;2.63;;;2.30;;
59008;SDS011;44794;42.652;23.318;2023-08-08T01:02:58;2.30;;;2.10;;
59008;SDS011;44794;42.652;23.318;2023-08-08T01:05:23;2.42;;;2.20;;
59008;SDS011;44794;42.652;23.318;2023-08-08T01:07:59;2.47;;;2.28;;
59008;SDS011;44794;42.652;23.318;2023-08-08T01:10:31;2.40;;;2.20;;
59008;SDS011;44794;42.652;23.318;2023-08-08T01:13:39;2.40;;;2.20;;
59008;SDS011;44794;42.652;23.318;2023-08-08T01:15:59;2.45;;;2.25;;
59008;SDS011;44794;42.652;23.318;2023-08-08T01:18:25;2.35;;;1.90;;
59008;SDS011;44794;42.652;23.318;2023-08-08T01:20:52;2.13;;;1.90;;
59008;SDS011;44794;42.652;23.318;2023-08-08T01:23:19;2.70;;;1.80;;
59008;SDS011;44794;42.652;23.318;2023-08-08T01:25:51;2.35;;;2.10;;
59008;SDS011;44794;42.652;23.318;2023-08-08T01:28:20;3.33;;;1.80;;
59008;SDS011;44794;42.652;23.318;2023-08-08T01:30:47;2.60;;;2.40;;
59008;SDS011;44794;42.652;23.318;2023-08-08T01:33:13;2.22;;;2.03;;
59008;SDS011;44794;42.652;23.318;2023-08-08T01:35:39;2.30;;;2.10;;
59008;SDS011;44794;42.652;23.318;2023-08-08T01:38:13;2.20;;;2.00;;
59008;SDS011;44794;42.652;23.318;2023-08-08T01:40:44;3.33;;;1.90;;
59008;SDS011;44794;42.652;23.318;2023-08-08T01:43:10;3.30;;;2.30;;
59008;SDS011;44794;42.652;23.318;2023-08-08T01:45:37;2.38;;;2.17;;
59008;SDS011;44794;42.652;23.318;2023-08-08T01:48:07;2.25;;;2.05;;
59008;SDS011;44794;42.652;23.318;2023-08-08T01:50:35;2.30;;;2.03;;
59008;SDS011;44794;42.652;23.318;2023-08-08T01:53:01;2.30;;;2.10;;
59008;SDS011;44794;42.652;23.318;2023-08-08T01:55:27;2.13;;;1.92;;
59008;SDS011;44794;42.652;23.318;2023-08-08T01:57:52;2.20;;;1.83;;
59008;SDS011;44794;42.652;23.318;2023-08-08T02:00:18;2.47;;;2.25;;
59008;SDS011;44794;42.652;23.318;2023-08-08T02:02:43;2.78;;;2.35;;
59008;SDS011;44794;42.652;23.318;2023-08-08T02:05:09;3.47;;;2.33;;
59008;SDS011;44794;42.652;23.318;2023-08-08T02:07:34;2.38;;;2.15;;
59008;SDS011;44794;42.652;23.318;2023-08-08T02:09:59;2.30;;;2.10;;
59008;SDS011;44794;42.652;23.318;2023-08-08T02:12:25;2.75;;;2.20;;
59008;SDS011;44794;42.652;23.318;2023-08-08T02:14:50;2.35;;;2.15;;
59008;SDS011;44794;42.652;23.318;2023-08-08T02:17:16;2.92;;;2.40;;
59008;SDS011;44794;42.652;23.318;2023-08-08T02:19:41;5.50;;;2.35;;
59008;SDS011;44794;42.652;23.318;2023-08-08T02:22:07;3.08;;;2.20;;
59008;SDS011;44794;42.652;23.318;2023-08-08T02:24:32;2.55;;;2.35;;
59008;SDS011;44794;42.652;23.318;2023-08-08T02:26:57;4.70;;;2.50;;
59008;SDS011;44794;42.652;23.318;2023-08-08T02:29:23;3.70;;;2.50;;
59008;SDS011;44794;42.652;23.318;2023-08-08T02:31:48;3.58;;;2.40;;
59008;SDS011;44794;42.652;23.318;2023-08-08T02:34:14;2.85;;;2.50;;
59008;SDS011;44794;42.652;23.318;2023-08-08T02:36:39;2.67;;;2.47;;
59008;SDS011;44794;42.652;23.318;2023-08-08T02:39:05;2.88;;;2.67;;
59008;SDS011;44794;42.652;23.318;2023-08-08T02:41:30;2.63;;;2.42;;
59008;SDS011;44794;42.652;23.318;2023-08-08T02:43:55;3.05;;;2.40;;
59008;SDS011;44794;42.652;23.318;2023-08-08T02:46:21;3.75;;;2.60;;
59008;SDS011;44794;42.652;23.318;2023-08-08T02:48:46;3.10;;;2.78;;
59008;SDS011;44794;42.652;23.318;2023-08-08T02:51:12;4.95;;;2.83;;
59008;SDS011;44794;42.652;23.318;2023-08-08T02:53:37;3.33;;;3.03;;
59008;SDS011;44794;42.652;23.318;2023-08-08T02:56:02;4.90;;;2.85;;
59008;SDS011;44794;42.652;23.318;2023-08-08T02:58:28;3.95;;;2.80;;
59008;SDS011;44794;42.652;23.318;2023-08-08T03:00:53;3.58;;;3.10;;
59008;SDS011;44794;42.652;23.318;2023-08-08T03:03:19;3.95;;;2.92;;
59008;SDS011;44794;42.652;23.318;2023-08-08T03:05:44;3.40;;;3.10;;
59008;SDS011;44794;42.652;23.318;2023-08-08T03:08:10;4.22;;;3.33;;
59008;SDS011;44794;42.652;23.318;2023-08-08T03:10:36;3.78;;;3.05;;
59008;SDS011;44794;42.652;23.318;2023-08-08T03:13:03;3.38;;;3.08;;
59008;SDS011;44794;42.652;23.318;2023-08-08T03:15:28;3.45;;;3.15;;
59008;SDS011;44794;42.652;23.318;2023-08-08T03:17:54;4.43;;;3.60;;
59008;SDS011;44794;42.652;23.318;2023-08-08T03:20:20;3.38;;;3.10;;
59008;SDS011;44794;42.652;23.318;2023-08-08T03:22:46;3.85;;;3.45;;
59008;SDS011;44794;42.652;23.318;2023-08-08T03:25:11;4.75;;;3.60;;
59008;SDS011;44794;42.652;23.318;2023-08-08T03:27:37;4.65;;;3.63;;
59008;SDS011;44794;42.652;23.318;2023-08-08T03:30:02;4.65;;;3.63;;
59008;SDS011;44794;42.652;23.318;2023-08-08T03:32:28;3.80;;;3.38;;
59008;SDS011;44794;42.652;23.318;2023-08-08T03:34:53;4.18;;;3.47;;
59008;SDS011;44794;42.652;23.318;2023-08-08T03:37:19;4.18;;;3.67;;
59008;SDS011;44794;42.652;23.318;2023-08-08T03:39:44;6.50;;;3.80;;
59008;SDS011;44794;42.652;23.318;2023-08-08T03:42:10;4.15;;;3.80;;
59008;SDS011;44794;42.652;23.318;2023-08-08T03:44:35;4.10;;;3.67;;
59008;SDS011;44794;42.652;23.318;2023-08-08T03:47:00;5.65;;;3.90;;
59008;SDS011;44794;42.652;23.318;2023-08-08T03:49:26;5.47;;;3.97;;
59008;SDS011;44794;42.652;23.318;2023-08-08T03:51:51;5.22;;;4.20;;
59008;SDS011;44794;42.652;23.318;2023-08-08T03:54:17;4.65;;;4.25;;
59008;SDS011;44794;42.652;23.318;2023-08-08T03:56:43;4.95;;;4.50;;
59008;SDS011;44794;42.652;23.318;2023-08-08T03:59:08;4.90;;;4.40;;
59008;SDS011;44794;42.652;23.318;2023-08-08T04:01:34;4.78;;;4.32;;
59008;SDS011;44794;42.652;23.318;2023-08-08T04:04:00;4.18;;;3.83;;
59008;SDS011;44794;42.652;23.318;2023-08-08T04:06:26;5.05;;;4.60;;
59008;SDS011;44794;42.652;23.318;2023-08-08T04:08:51;4.70;;;4.20;;
59008;SDS011;44794;42.652;23.318;2023-08-08T04:11:16;4.78;;;4.38;;
59008;SDS011;44794;42.652;23.318;2023-08-08T04:13:42;4.68;;;4.28;;
59008;SDS011;44794;42.652;23.318;2023-08-08T04:16:08;4.95;;;4.55;;
59008;SDS011;44794;42.652;23.318;2023-08-08T04:18:33;6.90;;;4.30;;
59008;SDS011;44794;42.652;23.318;2023-08-08T04:20:59;4.63;;;4.22;;
59008;SDS011;44794;42.652;23.318;2023-08-08T04:23:24;3.97;;;3.67;;
59008;SDS011;44794;42.652;23.318;2023-08-08T04:25:51;5.38;;;4.53;;
59008;SDS011;44794;42.652;23.318;2023-08-08T04:28:17;5.25;;;4.22;;
59008;SDS011;44794;42.652;23.318;2023-08-08T04:30:42;4.75;;;4.35;;
59008;SDS011;44794;42.652;23.318;2023-08-08T04:33:08;6.57;;;4.63;;
59008;SDS011;44794;42.652;23.318;2023-08-08T04:35:33;4.88;;;4.38;;
59008;SDS011;44794;42.652;23.318;2023-08-08T04:37:58;5.40;;;4.60;;
59008;SDS011;44794;42.652;23.318;2023-08-08T04:40:24;6.15;;;4.60;;
59008;SDS011;44794;42.652;23.318;2023-08-08T04:42:49;4.68;;;4.28;;
59008;SDS011;44794;42.652;23.318;2023-08-08T04:45:16;4.80;;;4.28;;
59008;SDS011;44794;42.652;23.318;2023-08-08T04:47:42;4.60;;;4.20;;
59008;SDS011;44794;42.652;23.318;2023-08-08T04:50:07;4.38;;;3.97;;
59008;SDS011;44794;42.652;23.318;2023-08-08T04:52:33;8.40;;;4.40;;
59008;SDS011;44794;42.652;23.318;2023-08-08T04:54:59;7.10;;;4.35;;
59008;SDS011;44794;42.652;23.318;2023-08-08T04:57:24;4.30;;;3.90;;
59008;SDS011;44794;42.652;23.318;2023-08-08T04:59:49;4.40;;;4.00;;
59008;SDS011;44794;42.652;23.318;2023-08-08T05:02:15;6.38;;;4.70;;
59008;SDS011;44794;42.652;23.318;2023-08-08T05:04:41;6.85;;;3.88;;
59008;SDS011;44794;42.652;23.318;2023-08-08T05:07:06;4.85;;;4.43;;
59008;SDS011;44794;42.652;23.318;2023-08-08T05:09:32;6.97;;;4.35;;
59008;SDS011;44794;42.652;23.318;2023-08-08T05:11:58;4.35;;;3.95;;
59008;SDS011;44794;42.652;23.318;2023-08-08T05:14:23;8.32;;;4.20;;
59008;SDS011;44794;42.652;23.318;2023-08-08T05:16:48;4.57;;;3.97;;
59008;SDS011;44794;42.652;23.318;2023-08-08T05:19:14;7.07;;;4.20;;
59008;SDS011;44794;42.652;23.318;2023-08-08T05:21:39;4.60;;;3.90;;
59008;SDS011;44794;42.652;23.318;2023-08-08T05:24:05;5.30;;;3.58;;
59008;SDS011;44794;42.652;23.318;2023-08-08T05:26:30;4.85;;;3.45;;
59008;SDS011;44794;42.652;23.318;2023-08-08T05:28:56;4.80;;;3.53;;
59008;SDS011;44794;42.652;23.318;2023-08-08T05:31:21;6.00;;;3.53;;
59008;SDS011;44794;42.652;23.318;2023-08-08T05:33:48;3.58;;;3.05;;
59008;SDS011;44794;42.652;23.318;2023-08-08T05:36:13;3.85;;;3.10;;
59008;SDS011;44794;42.652;23.318;2023-08-08T05:38:39;3.40;;;3.00;;
59008;SDS011;44794;42.652;23.318;2023-08-08T05:41:05;3.60;;;2.80;;
59008;SDS011;44794;42.652;23.318;2023-08-08T05:43:31;4.30;;;2.70;;
59008;SDS011;44794;42.652;23.318;2023-08-08T05:45:56;4.28;;;3.03;;
59008;SDS011;44794;42.652;23.318;2023-08-08T05:48:22;5.47;;;2.53;;
59008;SDS011;44794;42.652;23.318;2023-08-08T05:50:48;6.10;;;2.65;;
59008;SDS011;44794;42.652;23.318;2023-08-08T05:53:14;5.30;;;2.80;;
59008;SDS011;44794;42.652;23.318;2023-08-08T05:55:42;2.75;;;2.55;;
59008;SDS011;44794;42.652;23.318;2023-08-08T05:58:08;6.38;;;3.58;;
59008;SDS011;44794;42.652;23.318;2023-08-08T06:00:34;4.50;;;3.70;;
59008;SDS011;44794;42.652;23.318;2023-08-08T06:02:59;5.07;;;4.30;;
59008;SDS011;44794;42.652;23.318;2023-08-08T06:05:25;4.88;;;4.30;;
59008;SDS011;44794;42.652;23.318;2023-08-08T06:07:51;5.60;;;4.50;;
59008;SDS011;44794;42.652;23.318;2023-08-08T06:10:16;5.43;;;4.13;;
59008;SDS011;44794;42.652;23.318;2023-08-08T06:12:42;7.88;;;4.85;;
59008;SDS011;44794;42.652;23.318;2023-08-08T06:15:09;7.05;;;4.90;;
59008;SDS011;44794;42.652;23.318;2023-08-08T06:17:34;4.88;;;4.40;;
59008;SDS011;44794;42.652;23.318;2023-08-08T06:19:59;4.13;;;3.72;;
59008;SDS011;44794;42.652;23.318;2023-08-08T06:22:25;3.85;;;3.55;;
59008;SDS011;44794;42.652;23.318;2023-08-08T06:24:50;3.30;;;2.95;;
59008;SDS011;44794;42.652;23.318;2023-08-08T06:27:16;4.80;;;2.95;;
59008;SDS011;44794;42.652;23.318;2023-08-08T06:29:42;2.83;;;2.40;;
59008;SDS011;44794;42.652;23.318;2023-08-08T06:32:08;2.90;;;2.70;;
59008;SDS011;44794;42.652;23.318;2023-08-08T06:34:33;2.60;;;2.40;;
59008;SDS011;44794;42.652;23.318;2023-08-08T06:36:58;5.35;;;2.55;;
59008;SDS011;44794;42.652;23.318;2023-08-08T06:39:24;3.20;;;2.50;;
59008;SDS011;44794;42.652;23.318;2023-08-08T06:41:49;3.17;;;2.88;;
59008;SDS011;44794;42.652;23.318;2023-08-08T06:44:15;3.45;;;3.00;;
59008;SDS011;44794;42.652;23.318;2023-08-08T06:46:40;5.53;;;3.08;;
59008;SDS011;44794;42.652;23.318;2023-08-08T06:49:06;2.50;;;2.22;;
59008;SDS011;44794;42.652;23.318;2023-08-08T06:51:32;5.28;;;2.95;;
59008;SDS011;44794;42.652;23.318;2023-08-08T06:53:57;2.78;;;2.50;;
59008;SDS011;44794;42.652;23.318;2023-08-08T06:56:23;3.05;;;2.22;;
59008;SDS011;44794;42.652;23.318;2023-08-08T06:58:48;2.90;;;2.00;;
59008;SDS011;44794;42.652;23.318;2023-08-08T07:01:13;2.33;;;1.95;;
59008;SDS011;44794;42.652;23.318;2023-08-08T07:03:39;3.13;;;2.10;;
59008;SDS011;44794;42.652;23.318;2023-08-08T07:06:05;3.65;;;2.30;;
59008;SDS011;44794;42.652;23.318;2023-08-08T07:08:31;3.90;;;2.20;;
59008;SDS011;44794;42.652;23.318;2023-08-08T07:10:57;3.75;;;2.28;;
59008;SDS011;44794;42.652;23.318;2023-08-08T07:13:23;3.38;;;2.65;;
59008;SDS011;44794;42.652;23.318;2023-08-08T07:15:48;2.30;;;2.10;;
59008;SDS011;44794;42.652;23.318;2023-08-08T07:18:14;2.35;;;2.13;;
59008;SDS011;44794;42.652;23.318;2023-08-08T07:20:45;3.45;;;2.28;;
59008;SDS011;44794;42.652;23.318;2023-08-08T07:23:11;2.25;;;2.05;;
59008;SDS011;44794;42.652;23.318;2023-08-08T07:25:36;5.18;;;2.22;;
59008;SDS011;44794;42.652;23.318;2023-08-08T07:28:01;1.98;;;1.88;;
59008;SDS011;44794;42.652;23.318;2023-08-08T07:30:27;3.95;;;2.00;;
59008;SDS011;44794;42.652;23.318;2023-08-08T07:32:52;3.47;;;1.73;;
59008;SDS011;44794;42.652;23.318;2023-08-08T07:35:18;2.00;;;1.70;;
59008;SDS011;44794;42.652;23.318;2023-08-08T07:37:43;2.17;;;1.38;;
59008;SDS011;44794;42.652;23.318;2023-08-08T07:40:16;3.15;;;1.45;;
59008;SDS011;44794;42.652;23.318;2023-08-08T07:42:45;3.97;;;1.80;;
59008;SDS011;44794;42.652;23.318;2023-08-08T07:45:15;2.15;;;1.38;;
59008;SDS011;44794;42.652;23.318;2023-08-08T07:47:40;4.13;;;1.40;;
59008;SDS011;44794;42.652;23.318;2023-08-08T07:50:06;2.10;;;1.48;;
59008;SDS011;44794;42.652;23.318;2023-08-08T07:52:36;1.75;;;1.42;;
59008;SDS011;44794;42.652;23.318;2023-08-08T07:55:02;3.65;;;1.40;;
59008;SDS011;44794;42.652;23.318;2023-08-08T07:57:29;2.28;;;1.75;;
59008;SDS011;44794;42.652;23.318;2023-08-08T07:59:59;2.15;;;1.55;;
59008;SDS011;44794;42.652;23.318;2023-08-08T08:02:31;2.10;;;1.40;;
59008;SDS011;44794;42.652;23.318;2023-08-08T08:04:57;2.22;;;1.90;;
59008;SDS011;44794;42.652;23.318;2023-08-08T08:07:22;3.08;;;1.88;;
59008;SDS011;44794;42.652;23.318;2023-08-08T08:09:48;1.65;;;1.55;;
59008;SDS011;44794;42.652;23.318;2023-08-08T08:12:14;3.47;;;2.00;;
59008;SDS011;44794;42.652;23.318;2023-08-08T08:14:39;3.28;;;1.85;;
59008;SDS011;44794;42.652;23.318;2023-08-08T08:17:05;2.00;;;1.75;;
59008;SDS011;44794;42.652;23.318;2023-08-08T08:19:30;4.00;;;2.00;;
59008;SDS011;44794;42.652;23.318;2023-08-08T08:21:56;2.50;;;1.90;;
59008;SDS011;44794;42.652;23.318;2023-08-08T08:24:21;5.28;;;2.00;;
59008;SDS011;44794;42.652;23.318;2023-08-08T08:26:48;3.13;;;2.08;;
59008;SDS011;44794;42.652;23.318;2023-08-08T08:29:13;4.72;;;1.90;;
59008;SDS011;44794;42.652;23.318;2023-08-08T08:31:39;2.63;;;1.85;;
59008;SDS011;44794;42.652;23.318;2023-08-08T08:34:04;2.30;;;2.03;;
59008;SDS011;44794;42.652;23.318;2023-08-08T08:36:30;1.83;;;1.70;;
59008;SDS011;44794;42.652;23.318;2023-08-08T08:38:55;3.70;;;2.00;;
59008;SDS011;44794;42.652;23.318;2023-08-08T08:41:22;2.35;;;2.00;;
59008;SDS011;44794;42.652;23.318;2023-08-08T08:43:51;2.03;;;1.70;;
59008;SDS011;44794;42.652;23.318;2023-08-08T08:46:18;2.15;;;1.77;;
59008;SDS011;44794;42.652;23.318;2023-08-08T08:48:46;4.15;;;2.60;;
59008;SDS011;44794;42.652;23.318;2023-08-08T08:51:14;2.55;;;2.30;;
59008;SDS011;44794;42.652;23.318;2023-08-08T08:53:41;6.70;;;2.92;;
59008;SDS011;44794;42.652;23.318;2023-08-08T08:56:14;3.00;;;2.42;;
59008;SDS011;44794;42.652;23.318;2023-08-08T08:58:39;3.30;;;3.00;;
59008;SDS011;44794;42.652;23.318;2023-08-08T09:01:06;4.82;;;2.85;;
59008;SDS011;44794;42.652;23.318;2023-08-08T09:03:32;2.92;;;2.58;;
59008;SDS011;44794;42.652;23.318;2023-08-08T09:05:59;5.80;;;2.50;;
59008;SDS011;44794;42.652;23.318;2023-08-08T09:08:25;3.42;;;2.10;;
59008;SDS011;44794;42.652;23.318;2023-08-08T09:10:51;4.20;;;2.83;;
59008;SDS011;44794;42.652;23.318;2023-08-08T09:13:16;3.72;;;2.20;;
59008;SDS011;44794;42.652;23.318;2023-08-08T09:15:42;2.80;;;1.92;;
59008;SDS011;44794;42.652;23.318;2023-08-08T09:18:07;2.45;;;2.25;;
59008;SDS011;44794;42.652;23.318;2023-08-08T09:20:33;3.22;;;2.30;;
59008;SDS011;44794;42.652;23.318;2023-08-08T09:22:58;2.50;;;2.20;;
59008;SDS011;44794;42.652;23.318;2023-08-08T09:25:24;2.80;;;2.60;;
59008;SDS011;44794;42.652;23.318;2023-08-08T09:27:51;4.20;;;2.60;;
59008;SDS011;44794;42.652;23.318;2023-08-08T09:30:20;2.30;;;2.10;;
59008;SDS011;44794;42.652;23.318;2023-08-08T09:32:45;2.53;;;2.33;;
59008;SDS011;44794;42.652;23.318;2023-08-08T09:35:11;2.50;;;2.30;;
59008;SDS011;44794;42.652;23.318;2023-08-08T09:37:37;4.20;;;2.70;;
59008;SDS011;44794;42.652;23.318;2023-08-08T09:40:03;5.03;;;2.72;;
59008;SDS011;44794;42.652;23.318;2023-08-08T09:42:32;5.73;;;2.60;;
59008;SDS011;44794;42.652;23.318;2023-08-08T09:44:59;3.28;;;2.30;;
59008;SDS011;44794;42.652;23.318;2023-08-08T09:47:25;4.30;;;2.60;;
59008;SDS011;44794;42.652;23.318;2023-08-08T09:49:56;2.63;;;2.42;;
59008;SDS011;44794;42.652;23.318;2023-08-08T09:52:26;3.00;;;2.58;;
59008;SDS011;44794;42.652;23.318;2023-08-08T09:54:52;2.33;;;2.13;;
59008;SDS011;44794;42.652;23.318;2023-08-08T09:57:18;2.63;;;2.20;;
59008;SDS011;44794;42.652;23.318;2023-08-08T09:59:44;3.85;;;2.40;;
59008;SDS011;44794;42.652;23.318;2023-08-08T10:02:13;3.35;;;2.58;;
59008;SDS011;44794;42.652;23.318;2023-08-08T10:04:40;5.50;;;2.60;;
59008;SDS011;44794;42.652;23.318;2023-08-08T10:07:06;2.70;;;2.50;;
59008;SDS011;44794;42.652;23.318;2023-08-08T10:09:32;2.53;;;2.33;;
59008;SDS011;44794;42.652;23.318;2023-08-08T10:11:58;3.30;;;3.00;;
59008;SDS011;44794;42.652;23.318;2023-08-08T10:14:30;2.50;;;2.30;;
59008;SDS011;44794;42.652;23.318;2023-08-08T10:16:56;2.50;;;2.30;;
59008;SDS011;44794;42.652;23.318;2023-08-08T10:19:22;2.60;;;2.40;;
59008;SDS011;44794;42.652;23.318;2023-08-08T10:21:50;3.63;;;2.80;;
59008;SDS011;44794;42.652;23.318;2023-08-08T10:24:22;5.40;;;2.50;;
59008;SDS011;44794;42.652;23.318;2023-08-08T10:26:51;4.68;;;2.10;;
59008;SDS011;44794;42.652;23.318;2023-08-08T10:29:18;7.80;;;2.80;;
59008;SDS011;44794;42.652;23.318;2023-08-08T10:31:50;2.92;;;2.30;;
59008;SDS011;44794;42.652;23.318;2023-08-08T10:34:24;5.38;;;2.40;;
59008;SDS011;44794;42.652;23.318;2023-08-08T10:37:03;2.33;;;2.08;;
59008;SDS011;44794;42.652;23.318;2023-08-08T10:39:36;4.90;;;2.38;;
59008;SDS011;44794;42.652;23.318;2023-08-08T10:42:04;2.70;;;2.22;;
59008;SDS011;44794;42.652;23.318;2023-08-08T10:44:30;2.47;;;2.20;;
59008;SDS011;44794;42.652;23.318;2023-08-08T10:46:56;2.65;;;2.45;;
59008;SDS011;44794;42.652;23.318;2023-08-08T10:49:21;3.10;;;2.90;;
59008;SDS011;44794;42.652;23.318;2023-08-08T10:51:47;3.20;;;2.20;;
59008;SDS011;44794;42.652;23.318;2023-08-08T10:54:15;4.88;;;2.50;;
59008;SDS011;44794;42.652;23.318;2023-08-08T10:56:49;2.85;;;2.10;;
59008;SDS011;44794;42.652;23.318;2023-08-08T10:59:20;2.40;;;2.20;;
59008;SDS011;44794;42.652;23.318;2023-08-08T11:01:47;4.00;;;2.05;;
59008;SDS011;44794;42.652;23.318;2023-08-08T11:04:23;2.55;;;2.20;;
59008;SDS011;44794;42.652;23.318;2023-08-08T11:06:52;5.15;;;1.90;;
59008;SDS011;44794;42.652;23.318;2023-08-08T11:09:19;2.42;;;1.95;;
59008;SDS011;44794;42.652;23.318;2023-08-08T11:11:44;2.95;;;1.83;;
59008;SDS011;44794;42.652;23.318;2023-08-08T11:14:11;4.38;;;2.30;;
59008;SDS011;44794;42.652;23.318;2023-08-08T11:16:38;5.72;;;2.20;;
59008;SDS011;44794;42.652;23.318;2023-08-08T11:19:04;2.15;;;2.00;;
59008;SDS011;44794;42.652;23.318;2023-08-08T11:21:33;2.13;;;1.70;;
59008;SDS011;44794;42.652;23.318;2023-08-08T11:24:00;2.00;;;1.90;;
59008;SDS011;44794;42.652;23.318;2023-08-08T11:26:26;2.45;;;2.10;;
59008;SDS011;44794;42.652;23.318;2023-08-08T11:28:52;4.22;;;2.00;;
59008;SDS011;44794;42.652;23.318;2023-08-08T11:31:21;2.05;;;1.80;;
59008;SDS011;44794;42.652;23.318;2023-08-08T11:33:48;5.03;;;2.05;;
59008;SDS011;44794;42.652;23.318;2023-08-08T11:36:14;1.60;;;1.50;;
59008;SDS011;44794;42.652;23.318;2023-08-08T11:38:39;3.03;;;1.67;;
59008;SDS011;44794;42.652;23.318;2023-08-08T11:41:08;3.03;;;2.03;;
59008;SDS011;44794;42.652;23.318;2023-08-08T11:43:38;3.60;;;2.03;;
59008;SDS011;44794;42.652;23.318;2023-08-08T11:46:08;1.70;;;1.60;;
59008;SDS011;44794;42.652;23.318;2023-08-08T11:48:34;1.70;;;1.60;;
59008;SDS011;44794;42.652;23.318;2023-08-08T11:51:02;1.75;;;1.65;;
59008;SDS011;44794;42.652;23.318;2023-08-08T11:53:29;2.50;;;2.00;;
59008;SDS011;44794;42.652;23.318;2023-08-08T11:55:54;1.85;;;1.75;;
59008;SDS011;44794;42.652;23.318;2023-08-08T11:58:20;2.58;;;1.80;;
59008;SDS011;44794;42.652;23.318;2023-08-08T12:00:48;2.10;;;1.92;;
59008;SDS011;44794;42.652;23.318;2023-08-08T12:03:14;3.35;;;1.70;;
59008;SDS011;44794;42.652;23.318;2023-08-08T12:05:44;3.10;;;2.30;;
59008;SDS011;44794;42.652;23.318;2023-08-08T12:08:11;3.75;;;2.28;;
59008;SDS011;44794;42.652;23.318;2023-08-08T12:10:36;2.80;;;2.00;;
59008;SDS011;44794;42.652;23.318;2023-08-08T12:13:02;4.65;;;2.28;;
59008;SDS011;44794;42.652;23.318;2023-08-08T12:15:36;2.53;;;2.00;;
59008;SDS011;44794;42.652;23.318;2023-08-08T12:18:02;3.50;;;2.70;;
59008;SDS011;44794;42.652;23.318;2023-08-08T12:20:28;6.47;;;2.85;;
59008;SDS011;44794;42.652;23.318;2023-08-08T12:22:55;4.93;;;2.38;;
59008;SDS011;44794;42.652;23.318;2023-08-08T12:25:21;2.45;;;2.15;;
59008;SDS011;44794;42.652;23.318;2023-08-08T12:27:47;4.05;;;1.75;;
59008;SDS011;44794;42.652;23.318;2023-08-08T12:30:12;2.60;;;1.70;;
59008;SDS011;44794;42.652;23.318;2023-08-08T12:32:39;2.33;;;1.90;;
59008;SDS011;44794;42.652;23.318;2023-08-08T12:35:05;1.70;;;1.60;;
59008;SDS011;44794;42.652;23.318;2023-08-08T12:37:31;2.95;;;2.00;;
59008;SDS011;44794;42.652;23.318;2023-08-08T12:39:57;1.85;;;1.75;;
59008;SDS011;44794;42.652;23.318;2023-08-08T12:42:23;2.97;;;1.88;;
59008;SDS011;44794;42.652;23.318;2023-08-08T12:44:48;2.17;;;1.98;;
59008;SDS011;44794;42.652;23.318;2023-08-08T12:47:16;2.95;;;2.20;;
59008;SDS011;44794;42.652;23.318;2023-08-08T12:49:42;4.72;;;2.40;;
59008;SDS011;44794;42.652;23.318;2023-08-08T12:52:07;2.05;;;1.80;;
59008;SDS011;44794;42.652;23.318;2023-08-08T12:54:32;2.95;;;1.90;;
59008;SDS011;44794;42.652;23.318;2023-08-08T12:56:58;2.60;;;1.90;;
59008;SDS011;44794;42.652;23.318;2023-08-08T12:59:23;2.95;;;2.10;;
59008;SDS011;44794;42.652;23.318;2023-08-08T13:01:49;4.00;;;2.15;;
59008;SDS011;44794;42.652;23.318;2023-08-08T13:04:14;2.10;;;1.90;;
59008;SDS011;44794;42.652;23.318;2023-08-08T13:06:39;2.53;;;1.95;;
59008;SDS011;44794;42.652;23.318;2023-08-08T13:09:05;2.15;;;1.98;;
59008;SDS011;44794;42.652;23.318;2023-08-08T13:11:30;2.15;;;1.88;;
59008;SDS011;44794;42.652;23.318;2023-08-08T13:13:55;7.82;;;2.00;;
59008;SDS011;44794;42.652;23.318;2023-08-08T13:16:21;2.85;;;2.00;;
59008;SDS011;44794;42.652;23.318;2023-08-08T13:18:47;2.20;;;2.00;;
59008;SDS011;44794;42.652;23.318;2023-08-08T13:21:12;2.15;;;2.05;;
59008;SDS011;44794;42.652;23.318;2023-08-08T13:23:38;2.95;;;2.00;;
59008;SDS011;44794;42.652;23.318;2023-08-08T13:26:04;2.72;;;2.10;;
59008;SDS011;44794;42.652;23.318;2023-08-08T13:28:29;3.03;;;2.10;;
59008;SDS011;44794;42.652;23.318;2023-08-08T13:30:55;3.40;;;1.90;;
59008;SDS011;44794;42.652;23.318;2023-08-08T13:33:20;3.00;;;2.00;;
59008;SDS011;44794;42.652;23.318;2023-08-08T13:35:46;9.15;;;2.70;;
59008;SDS011;44794;42.652;23.318;2023-08-08T13:38:11;2.40;;;2.20;;
59008;SDS011;44794;42.652;23.318;2023-08-08T13:40:42;8.10;;;2.05;;
59008;SDS011;44794;42.652;23.318;2023-08-08T13:43:08;3.78;;;2.13;;
59008;SDS011;44794;42.652;23.318;2023-08-08T13:45:34;3.75;;;1.90;;
59008;SDS011;44794;42.652;23.318;2023-08-08T13:47:59;3.15;;;1.80;;
59008;SDS011;44794;42.652;23.318;2023-08-08T13:50:25;2.25;;;2.08;;
59008;SDS011;44794;42.652;23.318;2023-08-08T13:52:50;2.42;;;1.73;;
59008;SDS011;44794;42.652;23.318;2023-08-08T13:55:17;2.53;;;2.00;;
59008;SDS011;44794;42.652;23.318;2023-08-08T13:57:43;2.20;;;2.00;;
59008;SDS011;44794;42.652;23.318;2023-08-08T14:00:09;3.65;;;1.90;;
59008;SDS011;44794;42.652;23.318;2023-08-08T14:02:36;6.70;;;2.20;;
59008;SDS011;44794;42.652;23.318;2023-08-08T14:05:01;3.65;;;2.00;;
59008;SDS011;44794;42.652;23.318;2023-08-08T14:07:26;3.42;;;1.80;;
59008;SDS011;44794;42.652;23.318;2023-08-08T14:09:52;3.53;;;1.95;;
59008;SDS011;44794;42.652;23.318;2023-08-08T14:12:18;2.28;;;2.00;;
59008;SDS011;44794;42.652;23.318;2023-08-08T14:14:43;2.40;;;1.80;;
59008;SDS011;44794;42.652;23.318;2023-08-08T14:17:09;4.00;;;1.90;;
59008;SDS011;44794;42.652;23.318;2023-08-08T14:19:34;1.85;;;1.75;;
59008;SDS011;44794;42.652;23.318;2023-08-08T14:21:59;2.03;;;1.80;;
59008;SDS011;44794;42.652;23.318;2023-08-08T14:24:25;2.33;;;1.90;;
59008;SDS011;44794;42.652;23.318;2023-08-08T14:26:50;2.55;;;1.75;;
59008;SDS011;44794;42.652;23.318;2023-08-08T14:29:16;5.20;;;1.88;;